createdAt,value
2023-04-15T00:00:37.853Z,101008.38
2023-04-15T00:03:05.742Z,101009.28
2023-04-15T00:05:32.659Z,101011.94
2023-04-15T00:07:59.854Z,101007.78
2023-04-15T00:10:26.384Z,101005.19
2023-04-15T00:12:53.080Z,101011.44
2023-04-15T00:15:20.027Z,101013.25
2023-04-15T00:17:47.059Z,101014.16
2023-04-15T00:20:13.566Z,101009.03
2023-04-15T00:22:40.001Z,101015.13
2023-04-15T00:25:06.876Z,101007.47
2023-04-15T00:27:33.306Z,101011.13
2023-04-15T00:29:59.715Z,101011.28
2023-04-15T00:32:26.235Z,101007.91
2023-04-15T00:34:52.789Z,101010.75
2023-04-15T00:37:19.275Z,101002.19
2023-04-15T00:39:45.710Z,101011.81
2023-04-15T00:42:14.048Z,101001.47
2023-04-15T00:44:40.969Z,101007.72
2023-04-15T00:47:10.435Z,101012.19
2023-04-15T00:49:36.844Z,101015.75
2023-04-15T00:52:03.504Z,101017.59
2023-04-15T00:54:29.950Z,101018.53
2023-04-15T00:56:56.619Z,101022.09
2023-04-15T00:59:23.151Z,101017.88
2023-04-15T01:01:49.825Z,101014.56
2023-04-15T01:04:16.457Z,101020.78
2023-04-15T01:06:43.090Z,101019.25
2023-04-15T01:09:09.623Z,101021.13
2023-04-15T01:11:36.257Z,101019.56
2023-04-15T01:14:03.050Z,101023.03
2023-04-15T01:16:29.758Z,101019.81
2023-04-15T01:18:56.957Z,101018.25
2023-04-15T01:21:23.500Z,101023.47
2023-04-15T01:23:51.581Z,101020.16
2023-04-15T01:26:18.510Z,101019.44
2023-04-15T01:28:45.120Z,101024.75
2023-04-15T01:31:16.832Z,101018.00
2023-04-15T01:33:46.718Z,101019.78
2023-04-15T01:36:13.547Z,101024.22
2023-04-15T01:38:40.021Z,101013.97
2023-04-15T01:41:08.173Z,101014.84
2023-04-15T01:43:37.090Z,101022.75
2023-04-15T01:46:03.560Z,101023.66
2023-04-15T01:48:30.066Z,101021.13
2023-04-15T01:50:58.091Z,101022.94
2023-04-15T01:53:26.479Z,101023.03
2023-04-15T01:55:52.995Z,101025.81
2023-04-15T01:58:19.667Z,101028.53
2023-04-15T02:00:46.272Z,101021.78
2023-04-15T02:03:12.882Z,101033.09
2023-04-15T02:05:39.374Z,101027.91
2023-04-15T02:08:06.102Z,101017.66
2023-04-15T02:10:32.527Z,101025.63
2023-04-15T02:12:59.051Z,101026.56
2023-04-15T02:15:25.525Z,101032.78
2023-04-15T02:17:55.149Z,101031.19
2023-04-15T02:20:24.926Z,101030.41
2023-04-15T02:22:51.390Z,101032.16
2023-04-15T02:25:18.246Z,101038.19
2023-04-15T02:27:44.686Z,101033.94
2023-04-15T02:30:11.408Z,101034.88
2023-04-15T02:32:38.269Z,101038.34
2023-04-15T02:35:06.831Z,101037.66
2023-04-15T02:37:37.040Z,101042.84
2023-04-15T02:40:04.955Z,101048.97
2023-04-15T02:42:31.926Z,101054.22
2023-04-15T02:44:59.388Z,101060.41
2023-04-15T02:47:26.119Z,101067.56
2023-04-15T02:49:52.789Z,101073.84
2023-04-15T02:52:19.303Z,101069.72
2023-04-15T02:54:45.905Z,101066.41
2023-04-15T02:57:12.937Z,101075.16
2023-04-15T02:59:39.490Z,101077.88
2023-04-15T03:02:07.804Z,101081.44
2023-04-15T03:04:34.516Z,101078.97
2023-04-15T03:07:02.056Z,101073.03
2023-04-15T03:09:28.513Z,101077.47
2023-04-15T03:11:54.909Z,101084.50
2023-04-15T03:14:23.695Z,101088.94
2023-04-15T03:16:51.908Z,101086.34
2023-04-15T03:19:18.373Z,101083.91
2023-04-15T03:21:44.884Z,101091.72
2023-04-15T03:24:11.456Z,101095.22
2023-04-15T03:26:37.938Z,101088.34
2023-04-15T03:29:04.428Z,101090.09
2023-04-15T03:31:31.032Z,101088.44
2023-04-15T03:33:57.489Z,101089.38
2023-04-15T03:36:24.696Z,101092.13
2023-04-15T03:38:51.092Z,101098.25
2023-04-15T03:41:17.520Z,101099.28
2023-04-15T03:43:43.993Z,101099.38
2023-04-15T03:46:10.709Z,101104.78
2023-04-15T03:48:37.168Z,101105.75
2023-04-15T03:51:03.757Z,101113.59
2023-04-15T03:53:30.367Z,101112.03
2023-04-15T03:55:56.830Z,101117.28
2023-04-15T03:58:23.298Z,101118.22
2023-04-15T04:00:49.721Z,101122.63
2023-04-15T04:03:16.652Z,101121.88
2023-04-15T04:05:44.475Z,101122.00
2023-04-15T04:08:13.818Z,101122.97
2023-04-15T04:10:40.441Z,101133.38
2023-04-15T04:13:07.101Z,101134.31
2023-04-15T04:15:34.192Z,101142.97
2023-04-15T04:18:00.909Z,101139.56
2023-04-15T04:20:27.325Z,101137.16
2023-04-15T04:22:53.825Z,101143.31
2023-04-15T04:25:20.260Z,101152.84
2023-04-15T04:27:47.082Z,101150.31
2023-04-15T04:30:13.563Z,101150.44
2023-04-15T04:32:41.002Z,101157.38
2023-04-15T04:35:08.163Z,101154.94
2023-04-15T04:37:34.564Z,101158.44
2023-04-15T04:40:01.132Z,101163.63
2023-04-15T04:42:27.562Z,101174.94
2023-04-15T04:44:54.019Z,101178.38
2023-04-15T04:47:20.660Z,101187.03
2023-04-15T04:49:47.197Z,101196.53
2023-04-15T04:52:13.695Z,101196.66
2023-04-15T04:54:40.130Z,101198.34
2023-04-15T04:57:08.277Z,101201.00
2023-04-15T04:59:34.765Z,101199.34
2023-04-15T05:02:01.402Z,101209.63
2023-04-15T05:04:27.930Z,101210.41
2023-04-15T05:06:54.361Z,101217.25
2023-04-15T05:09:20.829Z,101219.00
2023-04-15T05:11:47.279Z,101219.78
2023-04-15T05:14:13.692Z,101227.44
2023-04-15T05:16:40.256Z,101229.97
2023-04-15T05:19:07.753Z,101233.38
2023-04-15T05:21:34.197Z,101233.38
2023-04-15T05:24:00.662Z,101229.94
2023-04-15T05:26:27.629Z,101246.19
2023-04-15T05:28:54.281Z,101247.81
2023-04-15T05:31:20.996Z,101252.84
2023-04-15T05:33:47.462Z,101257.06
2023-04-15T05:36:13.966Z,101252.66
2023-04-15T05:38:42.859Z,101267.19
2023-04-15T05:41:09.305Z,101264.50
2023-04-15T05:43:36.080Z,101270.53
2023-04-15T05:46:02.576Z,101276.50
2023-04-15T05:48:29.006Z,101276.50
2023-04-15T05:50:55.734Z,101280.81
2023-04-15T05:53:22.399Z,101285.09
2023-04-15T05:55:48.823Z,101287.63
2023-04-15T05:58:15.454Z,101288.47
2023-04-15T06:00:41.963Z,101291.03
2023-04-15T06:03:10.754Z,101288.47
2023-04-15T06:05:37.416Z,101295.22
2023-04-15T06:08:03.941Z,101296.91
2023-04-15T06:10:30.944Z,101307.22
2023-04-15T06:12:57.365Z,101314.94
2023-04-15T06:15:23.805Z,101310.59
2023-04-15T06:17:50.347Z,101316.53
2023-04-15T06:20:16.873Z,101319.94
2023-04-15T06:22:43.347Z,101330.16
2023-04-15T06:25:10.264Z,101325.66
2023-04-15T06:27:36.749Z,101330.66
2023-04-15T06:30:04.287Z,101335.69
2023-04-15T06:32:30.957Z,101337.19
2023-04-15T06:34:57.432Z,101343.00
2023-04-15T06:37:23.920Z,101335.91
2023-04-15T06:39:50.525Z,101350.34
2023-04-15T06:42:17.118Z,101346.69
2023-04-15T06:44:43.728Z,101353.44
2023-04-15T06:47:10.223Z,101361.81
2023-04-15T06:49:36.709Z,101364.13
2023-04-15T06:52:04.994Z,101368.31
2023-04-15T06:54:31.587Z,101370.78
2023-04-15T06:56:58.030Z,101373.91
2023-04-15T06:59:25.180Z,101376.91
2023-04-15T07:01:51.950Z,101379.19
2023-04-15T07:04:18.697Z,101383.94
2023-04-15T07:06:45.167Z,101395.69
2023-04-15T07:09:11.755Z,101396.19
2023-04-15T07:11:38.191Z,101398.56
2023-04-15T07:14:04.763Z,101401.50
2023-04-15T07:16:31.385Z,101404.00
2023-04-15T07:18:58.295Z,101407.56
2023-04-15T07:23:57.409Z,101416.91
2023-04-15T07:26:24.631Z,101420.25
2023-04-15T07:28:51.547Z,101427.00
2023-04-15T07:31:18.069Z,101427.72
2023-04-15T07:33:44.621Z,101421.41
2023-04-15T07:36:11.103Z,101436.63
2023-04-15T07:38:39.897Z,101436.19
2023-04-15T07:41:06.357Z,101429.56
2023-04-15T07:43:32.870Z,101439.28
2023-04-15T07:46:00.077Z,101442.03
2023-04-15T07:48:26.617Z,101446.66
2023-04-15T07:50:57.000Z,101443.53
2023-04-15T07:53:23.560Z,101447.41
2023-04-15T07:55:49.982Z,101442.75
2023-04-15T07:58:16.650Z,101443.41
2023-04-15T08:00:43.145Z,101449.09
2023-04-15T08:03:09.937Z,101452.44
2023-04-15T08:05:36.998Z,101450.50
2023-04-15T08:08:03.882Z,101459.16
2023-04-15T08:10:30.702Z,101456.19
2023-04-15T08:13:00.034Z,101455.88
2023-04-15T08:15:26.639Z,101463.19
2023-04-15T08:17:53.247Z,101472.59
2023-04-15T08:20:19.747Z,101469.75
2023-04-15T08:22:51.763Z,101466.97
2023-04-15T08:25:19.810Z,101471.34
2023-04-15T08:27:46.638Z,101467.56
2023-04-15T08:30:13.399Z,101477.53
2023-04-15T08:32:40.144Z,101482.06
2023-04-15T08:35:07.929Z,101477.91
2023-04-15T08:37:34.381Z,101483.78
2023-04-15T08:40:00.794Z,101489.69
2023-04-15T08:42:45.037Z,101488.66
2023-04-15T08:45:11.905Z,101497.75
2023-04-15T08:47:43.145Z,101506.66
2023-04-15T08:50:11.099Z,101505.94
2023-04-15T08:52:37.695Z,101519.94
2023-04-15T08:55:04.926Z,101518.97
2023-04-15T08:57:32.163Z,101516.91
2023-04-15T09:00:02.902Z,101519.75
2023-04-15T09:02:31.478Z,101517.38
2023-04-15T09:04:58.004Z,101525.56
2023-04-15T09:07:24.593Z,101526.25
2023-04-15T09:09:51.634Z,101524.13
2023-04-15T09:12:18.168Z,101535.47
2023-04-15T09:14:47.162Z,101536.50
2023-04-15T09:17:13.971Z,101547.31
2023-04-15T09:19:40.427Z,101545.25
2023-04-15T09:22:06.962Z,101546.91
2023-04-15T09:24:39.126Z,101550.75
2023-04-15T09:27:06.875Z,101554.97
2023-04-15T09:29:33.644Z,101561.66
2023-04-15T09:32:10.910Z,101568.56
2023-04-15T09:34:37.961Z,101572.50
2023-04-15T09:37:04.521Z,101564.63
2023-04-15T09:39:51.003Z,101565.47
2023-04-15T09:42:24.141Z,101564.50
2023-04-15T09:44:53.057Z,101561.31
2023-04-15T09:47:35.528Z,101567.72
2023-04-15T09:50:02.644Z,101565.06
2023-04-15T09:52:29.695Z,101574.50
2023-04-15T09:54:59.954Z,101580.91
2023-04-15T09:57:34.388Z,101579.84
2023-04-15T10:00:01.124Z,101585.78
2023-04-15T10:02:30.116Z,101583.25
2023-04-15T10:04:57.711Z,101589.16
2023-04-15T10:07:25.656Z,101577.44
2023-04-15T10:09:52.926Z,101586.31
2023-04-15T10:12:20.751Z,101586.78
2023-04-15T10:15:13.317Z,101586.59
2023-04-15T10:17:43.528Z,101597.47
2023-04-15T10:20:10.981Z,101591.78
2023-04-15T10:22:37.968Z,101597.78
2023-04-15T10:25:06.389Z,101597.09
2023-04-15T10:27:33.798Z,101593.66
2023-04-15T10:30:00.953Z,101593.50
2023-04-15T10:32:27.706Z,101591.53
2023-04-15T10:34:55.011Z,101592.19
2023-04-15T10:37:23.607Z,101601.09
2023-04-15T10:39:50.733Z,101598.53
2023-04-15T10:42:19.457Z,101598.31
2023-04-15T10:44:51.551Z,101611.84
2023-04-15T10:47:20.497Z,101623.84
2023-04-15T10:49:49.952Z,101625.78
2023-04-15T10:52:18.223Z,101614.78
2023-04-15T10:54:45.274Z,101619.84
2023-04-15T10:57:16.286Z,101621.47
2023-04-15T10:59:58.709Z,101620.69
2023-04-15T11:02:56.474Z,101640.16
2023-04-15T11:05:49.779Z,101629.38
2023-04-15T11:08:17.081Z,101626.47
2023-04-15T11:10:43.467Z,101634.84
2023-04-15T11:13:09.848Z,101628.25
2023-04-15T11:15:41.652Z,101637.13
2023-04-15T11:18:18.580Z,101644.22
2023-04-15T11:20:47.545Z,101637.59
2023-04-15T11:23:16.053Z,101641.94
2023-04-15T11:25:43.636Z,101636.75
2023-04-15T11:28:12.511Z,101643.19
2023-04-15T11:30:40.187Z,101639.50
2023-04-15T11:33:12.267Z,101651.72
2023-04-15T11:35:40.962Z,101646.31
2023-04-15T11:38:12.555Z,101644.28
2023-04-15T11:40:40.010Z,101645.97
2023-04-15T11:43:13.697Z,101653.09
2023-04-15T11:45:56.334Z,101655.88
2023-04-15T11:48:25.673Z,101652.16
2023-04-15T11:50:57.422Z,101650.25
2023-04-15T11:53:25.109Z,101653.84
2023-04-15T11:55:53.484Z,101654.41
2023-04-15T11:58:22.633Z,101663.31
2023-04-15T12:00:54.068Z,101657.84
2023-04-15T12:03:32.152Z,101673.81
2023-04-15T12:06:21.753Z,101670.53
2023-04-15T12:08:50.890Z,101681.00
2023-04-15T12:11:17.406Z,101686.06
2023-04-15T12:13:50.518Z,101677.69
2023-04-15T12:16:20.913Z,101691.06
2023-04-15T12:18:50.978Z,101697.53
2023-04-15T12:21:21.074Z,101702.63
2023-04-15T12:24:02.144Z,101693.84
2023-04-15T12:26:52.501Z,101687.16
2023-04-15T12:29:20.162Z,101699.56
2023-04-15T12:31:49.608Z,101694.66
2023-04-15T12:34:16.194Z,101706.22
2023-04-15T12:36:43.526Z,101715.75
2023-04-15T12:39:10.388Z,101714.81
2023-04-15T12:41:36.832Z,101711.88
2023-04-15T12:44:04.059Z,101726.34
2023-04-15T12:46:30.879Z,101719.22
2023-04-15T12:48:57.717Z,101721.16
2023-04-15T12:51:24.565Z,101731.47
2023-04-15T12:53:51.013Z,101730.72
2023-04-15T12:56:18.189Z,101728.09
2023-04-15T12:58:44.849Z,101735.28
2023-04-15T13:01:11.655Z,101734.91
2023-04-15T13:03:38.395Z,101742.97
2023-04-15T13:06:05.993Z,101746.44
2023-04-15T13:08:32.849Z,101745.06
2023-04-15T13:10:59.416Z,101749.34
2023-04-15T13:13:26.202Z,101754.06
2023-04-15T13:15:52.805Z,101755.47
2023-04-15T13:18:19.498Z,101772.97
2023-04-15T13:20:46.225Z,101776.41
2023-04-15T13:23:12.705Z,101767.88
2023-04-15T13:25:39.423Z,101772.75
2023-04-15T13:28:06.024Z,101778.59
2023-04-15T13:30:32.489Z,101777.81
2023-04-15T13:32:59.207Z,101783.84
2023-04-15T13:35:25.869Z,101787.34
2023-04-15T13:37:54.014Z,101791.75
2023-04-15T13:40:20.493Z,101797.59
2023-04-15T13:42:47.460Z,101801.34
2023-04-15T13:45:14.034Z,101803.31
2023-04-15T13:47:40.954Z,101798.63
2023-04-15T13:50:07.804Z,101810.84
2023-04-15T13:52:34.314Z,101815.16
2023-04-15T13:55:17.772Z,101815.09
2023-04-15T13:57:46.531Z,101820.47
2023-04-15T14:00:14.391Z,101814.59
2023-04-15T14:02:42.275Z,101826.25
2023-04-15T14:05:09.578Z,101825.19
2023-04-15T14:07:36.538Z,101814.94
2023-04-15T14:10:03.698Z,101821.97
2023-04-15T14:12:30.748Z,101828.41
2023-04-15T14:14:57.233Z,101825.78
2023-04-15T14:17:23.792Z,101844.66
2023-04-15T14:19:50.466Z,101831.84
2023-04-15T14:22:18.524Z,101844.09
2023-04-15T14:24:45.617Z,101847.75
2023-04-15T14:27:12.653Z,101862.31
2023-04-15T14:29:39.299Z,101862.50
2023-04-15T14:32:11.954Z,101861.34
2023-04-15T14:34:39.700Z,101869.81
2023-04-15T14:37:06.639Z,101873.38
2023-04-15T14:39:33.292Z,101867.19
2023-04-15T14:41:59.911Z,101879.94
2023-04-15T14:44:26.874Z,101868.69
2023-04-15T14:46:53.722Z,101879.84
2023-04-15T14:49:20.487Z,101881.63
2023-04-15T14:51:47.053Z,101885.19
2023-04-15T14:54:13.514Z,101894.16
2023-04-15T14:56:40.184Z,101894.34
2023-04-15T14:59:06.815Z,101901.56
2023-04-15T15:01:34.158Z,101909.28
2023-04-15T15:04:00.915Z,101906.78
2023-04-15T15:06:27.843Z,101918.88
2023-04-15T15:08:54.368Z,101913.13
2023-04-15T15:11:21.026Z,101920.53
2023-04-15T15:13:47.546Z,101918.09
2023-04-15T15:16:14.705Z,101921.81
2023-04-15T15:18:41.538Z,101937.66
2023-04-15T15:21:07.998Z,101938.00
2023-04-15T15:23:34.514Z,101942.25
2023-04-15T15:26:01.073Z,101941.31
2023-04-15T15:28:27.543Z,101939.94
2023-04-15T15:30:54.158Z,101942.66
2023-04-15T15:33:20.916Z,101947.72
2023-04-15T15:35:47.414Z,101950.09
2023-04-15T15:38:13.868Z,101952.34
2023-04-15T15:40:40.414Z,101958.19
2023-04-15T15:43:06.827Z,101971.56
2023-04-15T15:45:33.649Z,101950.16
2023-04-15T15:48:01.927Z,101957.13
2023-04-15T15:50:28.523Z,101965.50
2023-04-15T15:52:55.507Z,101960.22
2023-04-15T15:55:22.027Z,101960.31
2023-04-15T15:57:48.548Z,101971.81
2023-04-15T16:00:15.275Z,101993.75
2023-04-15T16:05:11.980Z,101964.34
2023-04-15T16:07:38.446Z,101976.59
2023-04-15T16:10:05.355Z,101982.59
2023-04-15T16:12:33.766Z,101983.50
2023-04-15T16:15:01.503Z,101984.56
2023-04-15T16:17:28.137Z,101997.06
2023-04-15T16:19:56.851Z,101995.38
2023-04-15T16:22:27.650Z,101992.97
2023-04-15T16:24:54.133Z,102005.41
2023-04-15T16:27:20.899Z,102009.06
2023-04-15T16:29:47.304Z,102011.09
2023-04-15T16:32:13.873Z,102011.97
2023-04-15T16:34:41.356Z,102012.56
2023-04-15T16:37:08.104Z,102018.53
2023-04-15T16:39:34.653Z,102025.06
2023-04-15T16:42:02.530Z,102021.91
2023-04-15T16:44:29.160Z,102029.81
2023-04-15T16:46:56.332Z,102029.81
2023-04-15T16:49:22.888Z,102039.63
2023-04-15T16:51:49.343Z,102029.28
2023-04-15T16:54:15.850Z,102043.16
2023-04-15T16:56:42.294Z,102056.22
2023-04-15T16:59:08.830Z,102037.31
2023-04-15T17:01:35.498Z,102042.66
2023-04-15T17:04:02.129Z,102041.75
2023-04-15T17:06:28.591Z,102043.72
2023-04-15T17:08:55.074Z,102052.72
2023-04-15T17:11:21.519Z,102046.69
2023-04-15T17:13:49.009Z,102050.94
2023-04-15T17:16:15.671Z,102054.50
2023-04-15T17:18:42.168Z,102047.53
2023-04-15T17:21:08.660Z,102063.16
2023-04-15T17:23:35.434Z,102059.06
2023-04-15T17:26:02.021Z,102062.50
2023-04-15T17:28:28.429Z,102067.88
2023-04-15T17:30:55.113Z,102075.53
2023-04-15T17:33:55.287Z,102071.28
2023-04-15T17:36:08.787Z,102073.91
2023-04-15T17:38:35.285Z,102073.91
2023-04-15T17:41:01.764Z,102074.88
2023-04-15T17:43:28.289Z,102080.22
2023-04-15T17:45:55.184Z,102076.81
2023-04-15T17:48:22.386Z,102077.78
2023-04-15T17:50:49.901Z,102087.31
2023-04-15T17:53:18.220Z,102101.22
2023-04-15T17:55:44.900Z,102097.06
2023-04-15T17:58:11.456Z,102103.25
2023-04-15T18:00:38.012Z,102107.72
2023-04-15T18:03:04.602Z,102105.94
2023-04-15T18:05:31.151Z,102114.66
2023-04-15T18:07:57.574Z,102109.38
2023-04-15T18:10:24.124Z,102110.31
2023-04-15T18:12:50.533Z,102102.56
2023-04-15T18:15:17.367Z,102119.03
2023-04-15T18:17:44.126Z,102120.81
2023-04-15T18:20:11.211Z,102117.50
2023-04-15T18:22:37.705Z,102118.38
2023-04-15T18:25:04.979Z,102121.91
2023-04-15T18:27:33.299Z,102120.19
2023-04-15T18:29:59.880Z,102128.94
2023-04-15T18:32:29.895Z,102136.81
2023-04-15T18:34:58.169Z,102137.78
2023-04-15T18:37:24.716Z,102142.94
2023-04-15T18:39:51.377Z,102145.56
2023-04-15T18:42:17.945Z,102137.91
2023-04-15T18:44:44.407Z,102140.59
2023-04-15T18:47:10.931Z,102150.09
2023-04-15T18:49:37.391Z,102151.16
2023-04-15T18:52:05.052Z,102148.63
2023-04-15T18:54:31.729Z,102152.25
2023-04-15T18:57:00.256Z,102154.91
2023-04-15T18:59:30.015Z,102162.69
2023-04-15T19:01:58.220Z,102167.97
2023-04-15T19:04:25.019Z,102172.41
2023-04-15T19:06:51.742Z,102171.50
2023-04-15T19:09:18.258Z,102179.38
2023-04-15T19:11:44.773Z,102181.09
2023-04-15T19:14:13.623Z,102182.91
2023-04-15T19:16:52.207Z,102184.72
2023-04-15T19:19:25.635Z,102173.44
2023-04-15T19:24:44.922Z,102169.22
2023-04-15T19:27:21.595Z,102189.25
2023-04-15T19:29:58.546Z,102195.31
2023-04-15T19:32:25.123Z,102189.41
2023-04-15T19:34:56.085Z,102194.53
2023-04-15T19:37:35.078Z,102195.44
2023-04-15T19:40:11.200Z,102194.59
2023-04-15T19:45:21.286Z,102205.00
2023-04-15T19:47:54.925Z,102203.31
2023-04-15T19:50:35.204Z,102205.06
2023-04-15T19:53:04.136Z,102203.22
2023-04-15T19:55:32.931Z,102205.91
2023-04-15T19:58:16.205Z,102205.06
2023-04-15T20:00:44.843Z,102218.13
2023-04-15T20:03:17.118Z,102211.09
2023-04-15T20:05:46.999Z,102205.91
2023-04-15T20:08:20.432Z,102221.63
2023-04-15T20:11:00.464Z,102214.69
2023-04-15T20:13:27.045Z,102211.19
2023-04-15T20:16:04.562Z,102217.34
2023-04-15T20:18:34.627Z,102207.81
2023-04-15T20:21:10.651Z,102216.44
2023-04-15T20:23:54.969Z,102212.00
2023-04-15T20:26:26.833Z,102225.00
2023-04-15T20:28:58.595Z,102220.78
2023-04-15T20:31:32.217Z,102209.44
2023-04-15T20:34:01.193Z,102216.38
2023-04-15T20:36:33.881Z,102231.19
2023-04-15T20:39:15.130Z,102223.47
2023-04-15T20:41:50.731Z,102213.91
2023-04-15T20:44:18.855Z,102217.34
2023-04-15T20:46:50.560Z,102219.13
2023-04-15T20:49:34.454Z,102220.00
2023-04-15T20:52:01.483Z,102221.72
2023-04-15T20:54:36.463Z,102227.88
2023-04-15T20:57:10.588Z,102227.88
2023-04-15T20:59:46.447Z,102226.16
2023-04-15T21:02:31.975Z,102222.75
2023-04-15T21:05:05.671Z,102235.75
2023-04-15T21:07:36.766Z,102233.09
2023-04-15T21:10:05.333Z,102235.75
2023-04-15T21:15:30.508Z,102239.22
2023-04-15T21:17:57.125Z,102237.50
2023-04-15T21:23:09.959Z,102236.63
2023-04-15T21:25:51.154Z,102234.91
2023-04-15T21:28:27.907Z,102240.94
2023-04-15T21:31:02.287Z,102240.94
2023-04-15T21:33:34.578Z,102254.88
2023-04-15T21:36:02.148Z,102246.28
2023-04-15T21:38:28.771Z,102249.78
2023-04-15T21:40:57.964Z,102244.63
2023-04-15T21:43:41.797Z,102243.00
2023-04-15T21:46:22.778Z,102245.63
2023-04-15T21:48:56.678Z,102243.00
2023-04-15T21:51:23.240Z,102242.00
2023-04-15T21:53:54.197Z,102243.84
2023-04-15T21:56:23.172Z,102242.13
2023-04-15T21:59:01.654Z,102253.50
2023-04-15T22:01:41.334Z,102256.03
2023-04-15T22:04:08.152Z,102263.81
2023-04-15T22:06:47.573Z,102262.09
2023-04-15T22:09:14.459Z,102268.13
2023-04-15T22:11:44.125Z,102269.94
2023-04-15T22:14:15.882Z,102272.47
2023-04-15T22:16:42.475Z,102273.41
2023-04-15T22:19:20.483Z,102273.34
2023-04-15T22:21:50.049Z,102276.81
2023-04-15T22:24:38.114Z,102271.63
2023-04-15T22:27:05.846Z,102269.88
2023-04-15T22:29:39.389Z,102267.28
2023-04-15T22:32:07.036Z,102274.22
2023-04-15T22:34:38.767Z,102284.50
2023-04-15T22:37:10.975Z,102275.84
2023-04-15T22:39:50.980Z,102287.03
2023-04-15T22:42:26.378Z,102278.44
2023-04-15T22:44:53.085Z,102278.38
2023-04-15T22:47:20.871Z,102287.03
2023-04-15T22:49:48.831Z,102285.25
2023-04-15T22:52:27.492Z,102290.47
2023-04-15T22:55:09.771Z,102279.25
2023-04-15T22:57:38.182Z,102278.38
2023-04-15T23:00:11.105Z,102291.31
2023-04-15T23:02:37.644Z,102293.06
2023-04-15T23:05:11.609Z,102293.97
2023-04-15T23:07:39.622Z,102297.41
2023-04-15T23:10:07.034Z,102300.00
2023-04-15T23:12:33.518Z,102308.66
2023-04-15T23:14:59.963Z,102305.28
2023-04-15T23:17:26.754Z,102308.75
2023-04-15T23:19:53.241Z,102307.88
2023-04-15T23:22:19.731Z,102315.72
2023-04-15T23:24:46.244Z,102307.94
2023-04-15T23:27:12.701Z,102315.69
2023-04-15T23:29:39.114Z,102304.44
2023-04-15T23:32:06.113Z,102310.59
2023-04-15T23:34:32.543Z,102309.69
2023-04-15T23:36:58.944Z,102320.09
2023-04-15T23:39:25.617Z,102315.78
2023-04-15T23:41:52.583Z,102320.97
2023-04-15T23:44:18.982Z,102327.09
2023-04-15T23:46:45.520Z,102327.09
2023-04-15T23:49:12.178Z,102319.28
2023-04-15T23:51:38.611Z,102327.94
2023-04-15T23:54:05.005Z,102331.44
2023-04-15T23:56:31.763Z,102328.84
2023-04-15T23:58:58.171Z,102327.94
